createdAt,value
2018-09-15T00:01:40.215Z,99818.00
2018-09-15T00:04:08.381Z,99820.00
2018-09-15T00:06:36.509Z,99828.00
2018-09-15T00:09:07.420Z,99824.00
2018-09-15T00:11:35.680Z,99820.00
2018-09-15T00:14:03.923Z,99823.00
2018-09-15T00:16:32.230Z,99826.00
2018-09-15T00:19:00.380Z,99840.00
2018-09-15T00:21:28.684Z,99844.00
2018-09-15T00:23:56.894Z,99844.00
2018-09-15T00:26:25.072Z,99839.00
2018-09-15T00:28:53.345Z,99837.00
2018-09-15T00:31:21.614Z,99837.00
2018-09-15T00:33:49.863Z,99837.00
2018-09-15T00:36:18.056Z,99837.00
2018-09-15T00:38:46.239Z,99840.00
2018-09-15T00:41:14.357Z,99842.00
2018-09-15T00:43:42.517Z,99843.00
2018-09-15T00:46:10.712Z,99848.00
2018-09-15T00:48:39.232Z,99846.00
2018-09-15T00:51:07.404Z,99847.00
2018-09-15T00:53:35.609Z,99845.00
2018-09-15T00:56:03.726Z,99852.00
2018-09-15T00:58:31.881Z,99860.00
2018-09-15T01:01:00.098Z,99857.00
2018-09-15T01:03:28.405Z,99859.00
2018-09-15T01:05:56.653Z,99862.00
2018-09-15T01:08:24.861Z,99863.00
2018-09-15T01:10:53.119Z,99862.00
2018-09-15T01:13:21.362Z,99862.00
2018-09-15T01:15:49.598Z,99860.00
2018-09-15T01:18:18.150Z,99861.00
2018-09-15T01:20:46.324Z,99860.00
2018-09-15T01:23:14.505Z,99869.00
2018-09-15T01:25:43.488Z,99872.00
2018-09-15T01:28:11.818Z,99877.00
2018-09-15T01:30:40.129Z,99879.00
2018-09-15T01:33:08.364Z,99883.00
2018-09-15T01:35:36.549Z,99885.00
2018-09-15T01:38:04.806Z,99881.00
2018-09-15T01:40:33.049Z,99877.00
2018-09-15T01:43:01.299Z,99881.00
2018-09-15T01:45:29.560Z,99886.00
2018-09-15T01:47:57.806Z,99890.00
2018-09-15T01:50:25.953Z,99893.00
2018-09-15T01:52:54.215Z,99889.00
2018-09-15T01:55:22.402Z,99883.00
2018-09-15T01:57:50.535Z,99884.00
2018-09-15T02:00:18.691Z,99879.00
2018-09-15T02:02:46.950Z,99890.00
2018-09-15T02:05:15.186Z,99886.00
2018-09-15T02:07:43.755Z,99893.00
2018-09-15T02:10:11.941Z,99895.00
2018-09-15T02:12:40.137Z,99892.00
2018-09-15T02:15:08.528Z,99889.00
2018-09-15T02:17:36.654Z,99891.00
2018-09-15T02:20:05.084Z,99896.00
2018-09-15T02:22:33.296Z,99894.00
2018-09-15T02:25:01.607Z,99893.00
2018-09-15T02:27:30.410Z,99890.00
2018-09-15T02:29:59.370Z,99895.00
2018-09-15T02:32:27.463Z,99902.00
2018-09-15T02:34:55.625Z,99906.00
2018-09-15T02:37:23.781Z,99908.00
2018-09-15T02:39:51.932Z,99910.00
2018-09-15T02:42:20.194Z,99914.00
2018-09-15T02:44:48.992Z,99914.00
2018-09-15T02:47:17.225Z,99914.00
2018-09-15T02:49:45.509Z,99915.00
2018-09-15T02:52:13.711Z,99913.00
2018-09-15T02:54:41.976Z,99913.00
2018-09-15T02:57:10.155Z,99919.00
2018-09-15T02:59:38.441Z,99920.00
2018-09-15T03:02:06.720Z,99932.00
2018-09-15T03:04:35.727Z,99929.00
2018-09-15T03:07:03.951Z,99931.00
2018-09-15T03:09:32.108Z,99933.00
2018-09-15T03:12:00.270Z,99937.00
2018-09-15T03:14:28.454Z,99941.00
2018-09-15T03:16:56.622Z,99941.00
2018-09-15T03:19:24.808Z,99953.00
2018-09-15T03:21:52.976Z,99944.00
2018-09-15T03:24:21.320Z,99954.00
2018-09-15T03:26:49.501Z,99959.00
2018-09-15T03:29:17.654Z,99955.00
2018-09-15T03:31:45.941Z,99963.00
2018-09-15T03:34:14.120Z,99969.00
2018-09-15T03:36:42.394Z,99965.00
2018-09-15T03:39:11.723Z,99964.00
2018-09-15T03:41:40.484Z,99966.00
2018-09-15T03:44:08.602Z,99967.00
2018-09-15T03:46:36.899Z,99966.00
2018-09-15T03:49:05.278Z,99962.00
2018-09-15T03:51:33.519Z,99967.00
2018-09-15T03:54:01.717Z,99971.00
2018-09-15T03:56:29.894Z,99975.00
2018-09-15T03:58:58.008Z,99977.00
2018-09-15T04:01:26.231Z,99979.00
2018-09-15T04:03:54.425Z,99980.00
2018-09-15T04:06:22.530Z,99976.00
2018-09-15T04:08:50.734Z,99978.00
2018-09-15T04:11:18.910Z,99985.00
2018-09-15T04:13:47.186Z,99984.00
2018-09-15T04:16:15.401Z,99988.00
2018-09-15T04:18:43.628Z,99988.00
2018-09-15T04:21:11.881Z,99997.00
2018-09-15T04:23:40.064Z,100000.00
2018-09-15T04:26:08.471Z,100002.00
2018-09-15T04:28:37.562Z,99997.00
2018-09-15T04:31:05.638Z,100002.00
2018-09-15T04:33:33.907Z,100005.00
2018-09-15T04:36:02.096Z,100006.00
2018-09-15T04:38:30.377Z,100000.00
2018-09-15T04:40:58.580Z,100003.00
2018-09-15T04:43:26.774Z,100004.00
2018-09-15T04:45:54.964Z,100008.00
2018-09-15T04:48:23.166Z,100006.00
2018-09-15T04:50:51.374Z,100012.00
2018-09-15T04:53:19.602Z,100017.00
2018-09-15T04:55:47.785Z,100023.00
2018-09-15T04:58:16.064Z,100028.00
2018-09-15T05:00:44.333Z,100029.00
2018-09-15T05:03:12.542Z,100025.00
2018-09-15T05:05:40.781Z,100034.00
2018-09-15T05:08:09.091Z,100043.00
2018-09-15T05:10:37.253Z,100046.00
2018-09-15T05:13:05.417Z,100050.00
2018-09-15T05:15:33.621Z,100047.00
2018-09-15T05:18:01.888Z,100052.00
2018-09-15T05:20:30.733Z,100050.00
2018-09-15T05:22:58.915Z,100056.00
2018-09-15T05:25:27.178Z,100056.00
2018-09-15T05:27:55.664Z,100060.00
2018-09-15T05:30:24.585Z,100067.00
2018-09-15T05:32:52.744Z,100071.00
2018-09-15T05:35:20.998Z,100073.00
2018-09-15T05:37:49.170Z,100081.00
2018-09-15T05:40:17.396Z,100085.00
2018-09-15T05:42:45.709Z,100090.00
2018-09-15T05:45:13.902Z,100088.00
2018-09-15T05:47:42.067Z,100089.00
2018-09-15T05:50:10.574Z,100098.00
2018-09-15T05:52:38.790Z,100101.00
2018-09-15T05:55:07.249Z,100101.00
2018-09-15T05:57:35.410Z,100104.00
2018-09-15T06:00:04.027Z,100100.00
2018-09-15T06:02:32.233Z,100096.00
2018-09-15T06:05:00.430Z,100102.00
2018-09-15T06:07:28.643Z,100110.00
2018-09-15T06:09:56.758Z,100124.00
2018-09-15T06:12:24.873Z,100120.00
2018-09-15T06:14:53.037Z,100128.00
2018-09-15T06:17:21.231Z,100125.00
2018-09-15T06:19:49.456Z,100118.00
2018-09-15T06:22:17.842Z,100127.00
2018-09-15T06:24:46.068Z,100127.00
2018-09-15T06:27:14.197Z,100124.00
2018-09-15T06:29:42.392Z,100124.00
2018-09-15T06:32:10.648Z,100125.00
2018-09-15T06:34:38.957Z,100129.00
2018-09-15T06:37:07.300Z,100128.00
2018-09-15T06:39:35.455Z,100129.00
2018-09-15T06:42:03.700Z,100130.00
2018-09-15T06:44:32.056Z,100127.00
2018-09-15T06:47:00.896Z,100128.00
2018-09-15T06:49:29.139Z,100127.00
2018-09-15T06:51:57.386Z,100130.00
2018-09-15T06:54:25.622Z,100132.00
2018-09-15T06:56:53.912Z,100132.00
2018-09-15T06:59:22.144Z,100141.00
2018-09-15T07:01:50.422Z,100142.00
2018-09-15T07:04:18.541Z,100141.00
2018-09-15T07:06:46.701Z,100145.00
2018-09-15T07:09:15.431Z,100145.00
2018-09-15T07:11:43.699Z,100148.00
2018-09-15T07:14:11.943Z,100150.00
2018-09-15T07:16:40.280Z,100149.00
2018-09-15T07:19:08.550Z,100155.00
2018-09-15T07:21:36.958Z,100156.00
2018-09-15T07:24:05.131Z,100160.00
2018-09-15T07:26:33.453Z,100161.00
2018-09-15T07:29:01.770Z,100167.00
2018-09-15T07:31:30.027Z,100169.00
2018-09-15T07:33:59.321Z,100171.00
2018-09-15T07:36:27.482Z,100166.00
2018-09-15T07:38:55.586Z,100168.00
2018-09-15T07:41:23.820Z,100173.00
2018-09-15T07:43:51.918Z,100168.00
2018-09-15T07:46:20.261Z,100167.00
2018-09-15T07:48:48.365Z,100165.00
2018-09-15T07:51:16.554Z,100170.00
2018-09-15T07:53:44.780Z,100169.00
2018-09-15T07:56:13.047Z,100171.00
2018-09-15T07:58:41.329Z,100172.00
2018-09-15T08:01:09.456Z,100172.00
2018-09-15T08:03:37.502Z,100177.00
2018-09-15T08:06:05.717Z,100179.00
2018-09-15T08:08:33.834Z,100178.00
2018-09-15T08:11:01.987Z,100173.00
2018-09-15T08:13:31.074Z,100173.00
2018-09-15T08:15:59.510Z,100174.00
2018-09-15T08:18:27.796Z,100174.00
2018-09-15T08:20:55.967Z,100178.00
2018-09-15T08:23:24.109Z,100176.00
2018-09-15T08:25:52.282Z,100175.00
2018-09-15T08:28:20.541Z,100175.00
2018-09-15T08:30:48.622Z,100171.00
2018-09-15T08:33:17.070Z,100176.00
2018-09-15T08:35:45.322Z,100177.00
2018-09-15T08:38:13.551Z,100152.00
2018-09-15T08:40:41.771Z,100172.00
2018-09-15T08:43:10.038Z,100180.00
2018-09-15T08:45:39.821Z,100174.00
2018-09-15T08:48:08.100Z,100181.00
2018-09-15T08:50:37.646Z,100181.00
2018-09-15T08:53:05.806Z,100185.00
2018-09-15T08:55:33.941Z,100193.00
2018-09-15T08:58:02.069Z,100189.00
2018-09-15T09:00:30.332Z,100177.00
2018-09-15T09:02:58.546Z,100168.00
2018-09-15T09:05:26.781Z,100190.00
2018-09-15T09:07:56.873Z,100190.00
2018-09-15T09:10:25.833Z,100192.00
2018-09-15T09:12:53.960Z,100187.00
2018-09-15T09:15:22.146Z,100181.00
2018-09-15T09:17:51.272Z,100187.00
2018-09-15T09:20:19.394Z,100179.00
2018-09-15T09:22:47.412Z,100179.00
2018-09-15T09:25:15.759Z,100187.00
2018-09-15T09:27:43.883Z,100189.00
2018-09-15T09:30:12.086Z,100165.00
2018-09-15T09:32:40.411Z,100194.00
2018-09-15T09:35:08.629Z,100191.00
2018-09-15T09:37:37.055Z,100186.00
2018-09-15T09:40:05.307Z,100164.00
2018-09-15T09:42:33.468Z,100166.00
2018-09-15T09:45:01.663Z,100169.00
2018-09-15T09:47:29.896Z,100160.00
2018-09-15T09:49:58.067Z,100170.00
2018-09-15T09:52:26.194Z,100173.00
2018-09-15T09:54:54.336Z,100173.00
2018-09-15T09:57:22.502Z,100177.00
2018-09-15T09:59:50.821Z,100176.00
2018-09-15T10:02:22.782Z,100171.00
2018-09-15T10:04:51.115Z,100178.00
2018-09-15T10:07:19.404Z,100179.00
2018-09-15T10:09:47.525Z,100181.00
2018-09-15T10:12:15.775Z,100180.00
2018-09-15T10:14:44.061Z,100180.00
2018-09-15T10:17:12.309Z,100172.00
2018-09-15T10:19:40.468Z,100170.00
2018-09-15T10:22:08.813Z,100170.00
2018-09-15T10:24:50.992Z,100178.00
2018-09-15T10:27:19.161Z,100165.00
2018-09-15T10:29:47.326Z,100179.00
2018-09-15T10:32:15.828Z,100164.00
2018-09-15T10:34:44.014Z,100190.00
2018-09-15T10:37:12.172Z,100179.00
2018-09-15T10:39:40.269Z,100168.00
2018-09-15T10:42:09.054Z,100143.00
2018-09-15T10:44:37.177Z,100148.00
2018-09-15T10:47:05.428Z,100151.00
2018-09-15T10:49:33.549Z,100154.00
2018-09-15T10:52:01.749Z,100152.00
2018-09-15T10:54:29.900Z,100154.00
2018-09-15T10:56:59.092Z,100157.00
2018-09-15T10:59:27.155Z,100162.00
2018-09-15T11:01:55.273Z,100166.00
2018-09-15T11:04:28.712Z,100162.00
2018-09-15T11:06:56.889Z,100167.00
2018-09-15T11:09:25.180Z,100166.00
2018-09-15T11:11:53.326Z,100172.00
2018-09-15T11:14:21.440Z,100170.00
2018-09-15T11:16:49.685Z,100164.00
2018-09-15T11:19:17.941Z,100166.00
2018-09-15T11:21:46.190Z,100159.00
2018-09-15T11:24:14.434Z,100156.00
2018-09-15T11:26:42.715Z,100166.00
2018-09-15T11:29:10.898Z,100159.00
2018-09-15T11:31:39.195Z,100157.00
2018-09-15T11:34:08.067Z,100144.00
2018-09-15T11:36:36.260Z,100136.00
2018-09-15T11:39:07.472Z,100144.00
2018-09-15T11:41:35.647Z,100149.00
2018-09-15T11:44:03.730Z,100144.00
2018-09-15T11:46:31.765Z,100152.00
2018-09-15T11:48:59.972Z,100141.00
2018-09-15T11:51:28.410Z,100146.00
2018-09-15T11:53:56.859Z,100145.00
2018-09-15T11:56:25.025Z,100147.00
2018-09-15T11:58:53.155Z,100135.00
2018-09-15T12:01:21.341Z,100126.00
2018-09-15T12:03:49.445Z,100135.00
2018-09-15T12:06:17.695Z,100136.00
2018-09-15T12:08:46.026Z,100133.00
2018-09-15T12:11:14.194Z,100117.00
2018-09-15T12:13:42.340Z,100115.00
2018-09-15T12:16:10.462Z,100115.00
2018-09-15T12:18:38.695Z,100123.00
2018-09-15T12:21:08.922Z,100125.00
2018-09-15T12:23:37.147Z,100135.00
2018-09-15T12:26:05.325Z,100139.00
2018-09-15T12:28:34.571Z,100125.00
2018-09-15T12:31:02.814Z,100128.00
2018-09-15T12:33:31.055Z,100139.00
2018-09-15T12:36:00.266Z,100137.00
2018-09-15T12:38:29.750Z,100138.00
2018-09-15T12:41:01.296Z,100112.00
2018-09-15T12:43:29.481Z,100124.00
2018-09-15T12:45:57.921Z,100122.00
2018-09-15T12:48:26.295Z,100132.00
2018-09-15T12:50:54.370Z,100141.00
2018-09-15T12:53:22.435Z,100150.00
2018-09-15T12:55:50.950Z,100142.00
2018-09-15T12:58:19.055Z,100136.00
2018-09-15T13:00:47.977Z,100140.00
2018-09-15T13:03:16.667Z,100143.00
2018-09-15T13:05:44.834Z,100141.00
2018-09-15T13:08:13.164Z,100144.00
2018-09-15T13:10:41.418Z,100147.00
2018-09-15T13:13:09.619Z,100154.00
2018-09-15T13:15:37.978Z,100152.00
2018-09-15T13:18:07.067Z,100153.00
2018-09-15T13:20:35.260Z,100137.00
2018-09-15T13:23:03.579Z,100131.00
2018-09-15T13:25:31.827Z,100129.00
2018-09-15T13:28:00.139Z,100129.00
2018-09-15T13:30:28.431Z,100130.00
2018-09-15T13:32:57.238Z,100127.00
2018-09-15T13:35:25.510Z,100137.00
2018-09-15T13:37:53.799Z,100141.00
2018-09-15T13:40:21.988Z,100147.00
2018-09-15T13:42:50.217Z,100131.00
2018-09-15T13:45:18.439Z,100134.00
2018-09-15T13:47:46.690Z,100132.00
2018-09-15T13:50:14.967Z,100131.00
2018-09-15T13:52:43.166Z,100119.00
2018-09-15T13:55:11.420Z,100118.00
2018-09-15T13:57:42.206Z,100120.00
2018-09-15T14:00:10.522Z,100120.00
2018-09-15T14:02:41.749Z,100125.00
2018-09-15T14:05:12.227Z,100126.00
2018-09-15T14:07:42.279Z,100129.00
2018-09-15T14:10:10.729Z,100128.00
2018-09-15T14:12:39.564Z,100131.00
2018-09-15T14:15:08.016Z,100131.00
2018-09-15T14:17:36.203Z,100132.00
2018-09-15T14:20:04.681Z,100127.00
2018-09-15T14:22:32.883Z,100128.00
2018-09-15T14:25:01.090Z,100123.00
2018-09-15T14:27:29.320Z,100123.00
2018-09-15T14:29:57.543Z,100118.00
2018-09-15T14:32:26.320Z,100122.00
2018-09-15T14:34:54.876Z,100122.00
2018-09-15T14:37:23.071Z,100128.00
2018-09-15T14:39:51.149Z,100130.00
2018-09-15T14:42:19.323Z,100130.00
2018-09-15T14:44:47.538Z,100141.00
2018-09-15T14:47:15.787Z,100140.00
2018-09-15T14:49:43.824Z,100141.00
2018-09-15T14:52:11.894Z,100146.00
2018-09-15T14:54:39.974Z,100143.00
2018-09-15T14:57:08.230Z,100138.00
2018-09-15T14:59:36.304Z,100140.00
2018-09-15T15:02:04.646Z,100138.00
2018-09-15T15:04:32.699Z,100140.00
2018-09-15T15:07:00.837Z,100135.00
2018-09-15T15:09:29.059Z,100141.00
2018-09-15T15:11:57.182Z,100136.00
2018-09-15T15:14:25.340Z,100137.00
2018-09-15T15:16:53.483Z,100137.00
2018-09-15T15:19:21.558Z,100136.00
2018-09-15T15:21:49.783Z,100135.00
2018-09-15T15:24:18.039Z,100140.00
2018-09-15T15:26:46.215Z,100138.00
2018-09-15T15:29:14.573Z,100136.00
2018-09-15T15:31:42.803Z,100141.00
2018-09-15T15:34:10.913Z,100131.00
2018-09-15T15:36:39.057Z,100131.00
2018-09-15T15:39:08.552Z,100131.00
2018-09-15T15:41:37.030Z,100133.00
2018-09-15T15:44:05.284Z,100131.00
2018-09-15T15:46:34.408Z,100128.00
2018-09-15T15:49:03.184Z,100125.00
2018-09-15T15:51:31.375Z,100127.00
2018-09-15T15:53:59.680Z,100122.00
2018-09-15T15:56:27.891Z,100121.00
2018-09-15T15:58:56.158Z,100133.00
2018-09-15T16:01:24.399Z,100136.00
2018-09-15T16:03:52.841Z,100143.00
2018-09-15T16:06:21.094Z,100147.00
2018-09-15T16:08:50.248Z,100148.00
2018-09-15T16:11:18.467Z,100149.00
2018-09-15T16:13:46.652Z,100150.00
2018-09-15T16:16:14.782Z,100154.00
2018-09-15T16:18:42.868Z,100154.00
2018-09-15T16:21:11.093Z,100154.00
2018-09-15T16:23:39.240Z,100156.00
2018-09-15T16:26:07.270Z,100150.00
2018-09-15T16:28:35.474Z,100148.00
2018-09-15T16:31:03.682Z,100139.00
2018-09-15T16:33:31.774Z,100141.00
2018-09-15T16:35:59.981Z,100147.00
2018-09-15T16:38:28.262Z,100145.00
2018-09-15T16:40:56.461Z,100139.00
2018-09-15T16:43:24.610Z,100136.00
2018-09-15T16:45:52.633Z,100139.00
2018-09-15T16:48:20.809Z,100135.00
2018-09-15T16:50:49.061Z,100139.00
2018-09-15T16:53:17.303Z,100152.00
2018-09-15T16:55:45.360Z,100158.00
2018-09-15T16:58:13.433Z,100166.00
2018-09-15T17:00:42.026Z,100169.00
2018-09-15T17:03:10.189Z,100175.00
2018-09-15T17:05:38.304Z,100170.00
2018-09-15T17:08:06.349Z,100181.00
2018-09-15T17:10:34.930Z,100182.00
2018-09-15T17:13:03.234Z,100182.00
2018-09-15T17:15:31.403Z,100183.00
2018-09-15T17:18:00.090Z,100177.00
2018-09-15T17:20:28.188Z,100179.00
2018-09-15T17:22:56.416Z,100179.00
2018-09-15T17:25:24.507Z,100184.00
2018-09-15T17:27:52.804Z,100184.00
2018-09-15T17:30:20.944Z,100180.00
2018-09-15T17:32:49.623Z,100190.00
2018-09-15T17:35:18.687Z,100190.00
2018-09-15T17:37:46.786Z,100198.00
2018-09-15T17:40:14.925Z,100197.00
2018-09-15T17:42:43.132Z,100204.00
2018-09-15T17:45:11.396Z,100199.00
2018-09-15T17:47:39.635Z,100204.00
2018-09-15T17:50:07.799Z,100210.00
2018-09-15T17:52:35.935Z,100216.00
2018-09-15T17:55:04.769Z,100221.00
2018-09-15T17:57:33.016Z,100222.00
2018-09-15T18:00:01.590Z,100223.00
2018-09-15T18:02:29.921Z,100224.00
2018-09-15T18:04:58.136Z,100229.00
2018-09-15T18:07:26.406Z,100233.00
2018-09-15T18:09:54.761Z,100235.00
2018-09-15T18:12:22.953Z,100241.00
2018-09-15T18:14:51.142Z,100241.00
2018-09-15T18:17:19.971Z,100246.00
2018-09-15T18:19:48.185Z,100247.00
2018-09-15T18:22:16.431Z,100248.00
2018-09-15T18:24:44.679Z,100256.00
2018-09-15T18:27:12.777Z,100255.00
2018-09-15T18:29:40.867Z,100259.00
2018-09-15T18:32:09.111Z,100259.00
2018-09-15T18:34:37.390Z,100256.00
2018-09-15T18:37:05.575Z,100263.00
2018-09-15T18:39:33.688Z,100261.00
2018-09-15T18:42:02.132Z,100270.00
2018-09-15T18:44:30.310Z,100269.00
2018-09-15T18:46:58.478Z,100270.00
2018-09-15T18:49:26.658Z,100269.00
2018-09-15T18:51:55.833Z,100266.00
2018-09-15T18:54:24.037Z,100271.00
2018-09-15T18:56:52.191Z,100274.00
2018-09-15T18:59:20.291Z,100271.00
2018-09-15T19:01:48.556Z,100278.00
2018-09-15T19:04:16.796Z,100285.00
2018-09-15T19:06:45.255Z,100290.00
2018-09-15T19:09:13.445Z,100291.00
2018-09-15T19:11:42.151Z,100293.00
2018-09-15T19:14:10.354Z,100291.00
2018-09-15T19:16:38.556Z,100295.00
2018-09-15T19:19:06.878Z,100299.00
2018-09-15T19:21:35.015Z,100306.00
2018-09-15T19:24:03.135Z,100300.00
2018-09-15T19:26:31.376Z,100306.00
2018-09-15T19:28:59.850Z,100312.00
2018-09-15T19:31:28.040Z,100303.00
2018-09-15T19:33:56.230Z,100308.00
2018-09-15T19:36:24.448Z,100309.00
2018-09-15T19:38:52.647Z,100307.00
2018-09-15T19:41:21.802Z,100309.00
2018-09-15T19:43:50.000Z,100311.00
2018-09-15T19:46:19.493Z,100315.00
2018-09-15T19:48:47.716Z,100312.00
2018-09-15T19:51:15.991Z,100312.00
2018-09-15T19:53:44.194Z,100315.00
2018-09-15T19:56:12.840Z,100324.00
2018-09-15T19:58:41.385Z,100322.00
2018-09-15T20:01:09.542Z,100327.00
2018-09-15T20:03:37.679Z,100336.00
2018-09-15T20:06:05.906Z,100335.00
2018-09-15T20:08:34.029Z,100337.00
2018-09-15T20:11:02.159Z,100333.00
2018-09-15T20:13:30.656Z,100331.00
2018-09-15T20:15:57.154Z,100342.00
2018-09-15T20:18:23.590Z,100345.00
2018-09-15T20:20:50.116Z,100343.00
2018-09-15T20:23:18.224Z,100346.00
2018-09-15T20:25:46.301Z,100345.00
2018-09-15T20:28:14.410Z,100347.00
2018-09-15T20:30:42.438Z,100345.00
2018-09-15T20:33:10.664Z,100351.00
2018-09-15T20:35:38.695Z,100344.00
2018-09-15T20:38:07.245Z,100349.00
2018-09-15T20:40:35.311Z,100345.00
2018-09-15T20:43:03.444Z,100356.00
2018-09-15T20:45:31.516Z,100348.00
2018-09-15T20:47:59.662Z,100351.00
2018-09-15T20:50:27.825Z,100349.00
2018-09-15T20:52:55.897Z,100356.00
2018-09-15T20:55:24.119Z,100354.00
2018-09-15T20:57:52.413Z,100358.00
2018-09-15T21:00:20.709Z,100353.00
2018-09-15T21:02:48.769Z,100357.00
2018-09-15T21:05:17.840Z,100364.00
2018-09-15T21:07:45.976Z,100359.00
2018-09-15T21:10:14.049Z,100359.00
2018-09-15T21:12:42.185Z,100361.00
2018-09-15T21:15:10.359Z,100363.00
2018-09-15T21:17:38.479Z,100367.00
2018-09-15T21:20:06.847Z,100371.00
2018-09-15T21:22:35.016Z,100370.00
2018-09-15T21:25:03.167Z,100370.00
2018-09-15T21:27:31.606Z,100370.00
2018-09-15T21:29:59.770Z,100371.00
2018-09-15T21:32:27.862Z,100369.00
2018-09-15T21:34:56.079Z,100371.00
2018-09-15T21:37:24.055Z,100377.00
2018-09-15T21:39:52.167Z,100381.00
2018-09-15T21:42:20.314Z,100382.00
2018-09-15T21:44:48.627Z,100389.00
2018-09-15T21:47:16.822Z,100386.00
2018-09-15T21:49:45.123Z,100383.00
2018-09-15T21:52:13.303Z,100385.00
2018-09-15T21:54:41.519Z,100380.00
2018-09-15T21:57:09.622Z,100385.00
2018-09-15T21:59:37.996Z,100388.00
2018-09-15T22:02:06.143Z,100392.00
2018-09-15T22:04:34.990Z,100390.00
2018-09-15T22:07:03.256Z,100395.00
2018-09-15T22:09:31.490Z,100399.00
2018-09-15T22:11:59.701Z,100397.00
2018-09-15T22:14:27.937Z,100400.00
2018-09-15T22:16:56.899Z,100399.00
2018-09-15T22:19:24.970Z,100400.00
2018-09-15T22:21:53.332Z,100399.00
2018-09-15T22:24:21.400Z,100398.00
2018-09-15T22:26:49.520Z,100399.00
2018-09-15T22:29:17.760Z,100405.00
2018-09-15T22:31:45.872Z,100408.00
2018-09-15T22:34:14.075Z,100406.00
2018-09-15T22:36:42.173Z,100407.00
2018-09-15T22:39:10.401Z,100404.00
2018-09-15T22:41:39.524Z,100404.00
2018-09-15T22:44:08.365Z,100400.00
2018-09-15T22:46:36.429Z,100401.00
2018-09-15T22:49:04.499Z,100404.00
2018-09-15T22:51:32.676Z,100405.00
2018-09-15T22:54:00.998Z,100410.00
2018-09-15T22:56:29.150Z,100411.00
2018-09-15T22:58:57.334Z,100412.00
2018-09-15T23:01:26.111Z,100408.00
2018-09-15T23:04:10.976Z,100413.00
2018-09-15T23:06:39.127Z,100418.00
2018-09-15T23:09:09.065Z,100412.00
2018-09-15T23:11:37.284Z,100417.00
2018-09-15T23:14:06.192Z,100413.00
2018-09-15T23:16:34.295Z,100416.00
2018-09-15T23:19:02.520Z,100412.00
2018-09-15T23:21:30.676Z,100411.00
2018-09-15T23:23:58.845Z,100405.00
2018-09-15T23:26:27.053Z,100406.00
2018-09-15T23:28:55.190Z,100404.00
2018-09-15T23:31:24.453Z,100402.00
2018-09-15T23:33:52.558Z,100409.00
2018-09-15T23:36:21.408Z,100404.00
2018-09-15T23:38:49.633Z,100402.00
2018-09-15T23:41:17.694Z,100400.00
2018-09-15T23:43:46.245Z,100401.00
2018-09-15T23:46:14.576Z,100401.00
2018-09-15T23:48:42.740Z,100394.00
2018-09-15T23:51:10.958Z,100397.00
2018-09-15T23:53:39.192Z,100391.00
2018-09-15T23:56:07.486Z,100386.00
2018-09-15T23:58:35.828Z,100389.00
